Time;durP1;ratioP1;P1;durP2;ratioP2;P2;SDS_P1;SDS_P2;PMS_P1;PMS_P2;Temp;Humidity;BMP_temperature;BMP_pressure;BME280_temperature;BME280_humidity;BME280_pressure;Samples;Min_cycle;Max_cycle;Signal;HPM_P1;HPM_P2
2022/05/10 00:01:20;;;;;;;;;;;;;;;;;;5086604;28;1163;-74
2022/05/10 00:03:46;;;;;;;;;;;;;;;;;;5066930;28;1275;-74
2022/05/10 00:06:11;;;;;;;;;;;;;;;;;;5066583;28;1167;-74
2022/05/10 00:08:37;;;;;;;;;;;;;;;;;;5063819;28;1951;-75
2022/05/10 00:11:05;;;;;;;;;;;;;;;;;;5062874;28;1136;-74
2022/05/10 00:13:30;;;;;;;;;;;;;;;;;;5047989;28;1229;-74
2022/05/10 00:15:55;;;;;;;;;;;;;;;;;;5083869;28;1167;-75
2022/05/10 00:18:22;;;;;;;;;;;;;;;;;;5084168;28;1176;-74
2022/05/10 00:20:48;;;;;;;;;;;;;;;;;;5067426;28;1183;-74
2022/05/10 00:23:13;;;;;;;;;;;;;;;;;;5084378;28;1179;-73
2022/05/10 00:25:42;;;;;;;;;;;;;;;;;;5063826;28;1235;-74
2022/05/10 00:28:07;;;;;;;;;;;;;;;;;;5083740;28;1886;-74
2022/05/10 00:30:33;;;;;;;;;;;;;;;;;;5079665;28;1129;-73
2022/05/10 00:32:58;;;;;;;;;;;;;;;;;;5105972;28;1199;-75
2022/05/10 00:35:26;;;;;;;;;;;;;;;;;;5104673;28;1297;-76
2022/05/10 00:37:53;;;;;;;;;;;;;;;;;;5104487;28;1414;-74
2022/05/10 00:40:23;;;;;;;;;;;;;;;;;;5104985;28;1225;-75
2022/05/10 00:42:57;;;;;;;;;;;;;;;;;;5101689;28;1289;-75
2022/05/10 00:45:29;;;;;;;;;;;;;;;;;;5103322;28;1268;-76
2022/05/10 00:47:54;;;;;;;;;;;;;;;;;;5105004;28;1921;-74
2022/05/10 00:50:33;;;;;;;;;;;;;;;;;;5106507;28;1422;-74
2022/05/10 00:53:12;;;;;;;;;;;;;;;;;;5107018;28;1269;-74
2022/05/10 00:55:47;;;;;;;;;;;;;;;;;;5101960;28;1403;-74
2022/05/10 00:58:15;;;;;;;;;;;;;;;;;;5104825;28;1140;-74
2022/05/10 01:00:40;;;;;;;;;;;;;;;;;;5102976;28;1174;-75
2022/05/10 01:03:11;;;;;;;;;;;;;;;;;;5105771;28;1183;-74
2022/05/10 01:05:43;;;;;;;;;;;;;;;;;;5102732;28;1163;-73
2022/05/10 01:08:12;;;;;;;;;;;;;;;;;;5104175;28;1958;-76
2022/05/10 01:10:43;;;;;;;;;;;;;;;;;;5103265;28;1146;-75
2022/05/10 01:13:08;;;;;;;;;;;;;;;;;;5101524;28;1052;-74
2022/05/10 01:15:34;;;;;;;;;;;;;;;;;;5104256;28;1171;-74
2022/05/10 01:18:01;;;;;;;;;;;;;;;;;;5105161;28;1190;-74
2022/05/10 01:20:36;;;;;;;;;;;;;;;;;;5070622;28;1263;-73
2022/05/10 01:23:26;;;;;;;;;;;;;;;;;;5082268;28;1261;-74
2022/05/10 01:26:09;;;;;;;;;;;;;;;;;;5079596;28;1320;-74
2022/05/10 01:28:51;;;;;;;;;;;;;;;;;;5084361;28;1948;-74
2022/05/10 01:31:26;;;;;;;;;;;;;;;;;;5085732;28;1203;-75
2022/05/10 01:33:58;;;;;;;;;;;;;;;;;;5070202;28;1143;-75
2022/05/10 01:36:31;;;;;;;;;;;;;;;;;;5069449;28;1228;-75
2022/05/10 01:39:02;;;;;;;;;;;;;;;;;;5069192;28;1295;-75
2022/05/10 01:41:35;;;;;;;;;;;;;;;;;;5064819;28;1378;-74
2022/05/10 01:44:06;;;;;;;;;;;;;;;;;;5088601;28;1156;-75
2022/05/10 01:46:32;;;;;;;;;;;;;;;;;;5067982;28;1208;-74
2022/05/10 01:49:05;;;;;;;;;;;;;;;;;;5087809;28;1914;-74
2022/05/10 01:51:33;;;;;;;;;;;;;;;;;;5067813;28;1315;-75
2022/05/10 01:53:58;;;;;;;;;;;;;;;;;;5067093;28;1186;-74
2022/05/10 01:56:29;;;;;;;;;;;;;;;;;;5048257;28;1269;-74
2022/05/10 01:58:55;;;;;;;;;;;;;;;;;;5070518;28;1069;-75
2022/05/10 02:01:31;;;;;;;;;;;;;;;;;;5088862;28;1214;-74
2022/05/10 02:04:00;;;;;;;;;;;;;;;;;;5088864;28;1159;-73
2022/05/10 02:06:26;;;;;;;;;;;;;;;;;;5087614;28;1231;-74
2022/05/10 02:09:01;;;;;;;;;;;;;;;;;;5065811;28;1951;-74
2022/05/10 02:11:30;;;;;;;;;;;;;;;;;;5064824;28;1344;-73
2022/05/10 02:14:02;;;;;;;;;;;;;;;;;;5069970;28;1385;-75
2022/05/10 02:16:32;;;;;;;;;;;;;;;;;;5085965;28;1175;-75
2022/05/10 02:19:00;;;;;;;;;;;;;;;;;;5069332;28;1280;-72
2022/05/10 02:21:33;;;;;;;;;;;;;;;;;;5087617;28;1239;-73
2022/05/10 02:24:06;;;;;;;;;;;;;;;;;;5085316;28;1151;-74
2022/05/10 02:26:38;;;;;;;;;;;;;;;;;;5082662;28;1144;-73
2022/05/10 02:29:03;;;;;;;;;;;;;;;;;;5088132;28;1898;-74
2022/05/10 02:31:31;;;;;;;;;;;;;;;;;;5078899;28;1207;-74
2022/05/10 02:33:58;;;;;;;;;;;;;;;;;;5087988;28;1403;-73
2022/05/10 02:36:23;;;;;;;;;;;;;;;;;;5088949;28;1255;-75
2022/05/10 02:38:49;;;;;;;;;;;;;;;;;;5065664;28;1298;-75
2022/05/10 02:41:15;;;;;;;;;;;;;;;;;;5082978;28;1199;-75
2022/05/10 02:43:44;;;;;;;;;;;;;;;;;;5086721;28;1037;-74
2022/05/10 02:46:09;;;;;;;;;;;;;;;;;;5085623;28;1243;-74
2022/05/10 02:48:35;;;;;;;;;;;;;;;;;;5084842;28;1933;-75
2022/05/10 02:51:00;;;;;;;;;;;;;;;;;;5093078;28;1175;-74
2022/05/10 02:53:26;;;;;;;;;;;;;;;;;;5085378;28;1266;-75
2022/05/10 02:56:01;;;;;;;;;;;;;;;;;;5084365;28;1160;-75
2022/05/10 02:58:45;;;;;;;;;;;;;;;;;;5093942;28;1286;-73
2022/05/10 03:01:19;;;;;;;;;;;;;;;;;;5107243;28;1115;-75
2022/05/10 03:03:45;;;;;;;;;;;;;;;;;;5104669;28;1185;-73
2022/05/10 03:06:14;;;;;;;;;;;;;;;;;;5105582;28;1340;-74
2022/05/10 03:08:39;;;;;;;;;;;;;;;;;;5102525;28;1945;-74
2022/05/10 03:11:04;;;;;;;;;;;;;;;;;;5103303;28;1068;-74
2022/05/10 03:13:29;;;;;;;;;;;;;;;;;;5091434;28;1297;-74
2022/05/10 03:15:55;;;;;;;;;;;;;;;;;;5085657;28;1259;-75
2022/05/10 03:18:21;;;;;;;;;;;;;;;;;;5088780;28;1310;-75
2022/05/10 03:20:46;;;;;;;;;;;;;;;;;;5087913;28;1174;-74
2022/05/10 03:23:11;;;;;;;;;;;;;;;;;;5104612;28;1227;-74
2022/05/10 03:25:41;;;;;;;;;;;;;;;;;;5086668;28;1254;-74
2022/05/10 03:28:06;;;;;;;;;;;;;;;;;;5104427;28;1882;-73
2022/05/10 03:30:35;;;;;;;;;;;;;;;;;;5094083;28;1116;-74
2022/05/10 03:33:00;;;;;;;;;;;;;;;;;;5067548;28;1249;-74
2022/05/10 03:35:25;;;;;;;;;;;;;;;;;;5069312;28;1249;-74
2022/05/10 03:37:51;;;;;;;;;;;;;;;;;;5083747;28;1150;-74
2022/05/10 03:40:16;;;;;;;;;;;;;;;;;;5083363;28;1145;-74
2022/05/10 03:42:42;;;;;;;;;;;;;;;;;;5072379;28;1232;-74
2022/05/10 03:45:08;;;;;;;;;;;;;;;;;;5096922;28;1128;-75
2022/05/10 03:47:35;;;;;;;;;;;;;;;;;;5083682;28;1972;-75
2022/05/10 03:50:02;;;;;;;;;;;;;;;;;;5082875;28;1226;-74
2022/05/10 03:52:27;;;;;;;;;;;;;;;;;;5086676;28;1192;-74
2022/05/10 03:54:53;;;;;;;;;;;;;;;;;;5079816;28;1120;-74
2022/05/10 03:57:19;;;;;;;;;;;;;;;;;;5084750;28;1156;-74
2022/05/10 03:59:44;;;;;;;;;;;;;;;;;;5077449;28;1342;-75
2022/05/10 04:02:10;;;;;;;;;;;;;;;;;;5104975;28;1097;-74
2022/05/10 04:04:42;;;;;;;;;;;;;;;;;;5103212;28;1341;-74
2022/05/10 04:07:07;;;;;;;;;;;;;;;;;;5088739;28;1959;-75
2022/05/10 04:09:32;;;;;;;;;;;;;;;;;;5089502;28;1169;-76
2022/05/10 04:11:57;;;;;;;;;;;;;;;;;;5084192;28;1154;-74
2022/05/10 04:14:23;;;;;;;;;;;;;;;;;;5105323;28;1150;-76
2022/05/10 04:16:48;;;;;;;;;;;;;;;;;;5086476;28;1248;-73
2022/05/10 04:19:13;;;;;;;;;;;;;;;;;;5105365;28;1190;-74
2022/05/10 04:21:42;;;;;;;;;;;;;;;;;;5106158;28;1068;-74
2022/05/10 04:24:08;;;;;;;;;;;;;;;;;;5103100;28;1277;-75
2022/05/10 04:26:33;;;;;;;;;;;;;;;;;;5091300;28;1171;-75
2022/05/10 04:28:59;;;;;;;;;;;;;;;;;;5102201;28;1885;-75
2022/05/10 04:31:28;;;;;;;;;;;;;;;;;;5105025;28;1116;-74
2022/05/10 04:33:53;;;;;;;;;;;;;;;;;;5104879;28;1049;-75
2022/05/10 04:36:22;;;;;;;;;;;;;;;;;;5104431;28;1198;-74
2022/05/10 04:38:48;;;;;;;;;;;;;;;;;;5084399;28;1210;-75
2022/05/10 04:41:24;;;;;;;;;;;;;;;;;;5101015;28;1238;-73
2022/05/10 04:43:50;;;;;;;;;;;;;;;;;;5103899;28;1166;-74
2022/05/10 04:46:16;;;;;;;;;;;;;;;;;;5086045;28;1554;-74
2022/05/10 04:48:44;;;;;;;;;;;;;;;;;;5093631;28;1979;-74
2022/05/10 04:51:10;;;;;;;;;;;;;;;;;;5088191;28;1222;-75
2022/05/10 04:53:35;;;;;;;;;;;;;;;;;;5105396;28;1175;-74
2022/05/10 04:56:02;;;;;;;;;;;;;;;;;;5097651;28;1187;-75
2022/05/10 04:58:27;;;;;;;;;;;;;;;;;;5084658;28;1180;-74
2022/05/10 05:00:55;;;;;;;;;;;;;;;;;;5082377;28;1231;-74
2022/05/10 05:03:20;;;;;;;;;;;;;;;;;;5086012;28;1139;-74
2022/05/10 05:05:46;;;;;;;;;;;;;;;;;;5083363;28;1145;-74
2022/05/10 05:08:11;;;;;;;;;;;;;;;;;;5064142;28;1898;-74
2022/05/10 05:10:38;;;;;;;;;;;;;;;;;;5084103;28;1148;-75
2022/05/10 05:13:03;;;;;;;;;;;;;;;;;;5081120;28;1346;-75
2022/05/10 05:15:29;;;;;;;;;;;;;;;;;;5084661;28;1133;-74
2022/05/10 05:17:54;;;;;;;;;;;;;;;;;;5082380;28;1352;-74
2022/05/10 05:20:19;;;;;;;;;;;;;;;;;;5067770;28;1144;-75
2022/05/10 05:22:50;;;;;;;;;;;;;;;;;;5084134;28;1124;-75
2022/05/10 05:25:16;;;;;;;;;;;;;;;;;;5081432;28;1305;-73
2022/05/10 05:27:41;;;;;;;;;;;;;;;;;;5078998;28;1961;-73
2022/05/10 05:30:10;;;;;;;;;;;;;;;;;;5079704;28;1278;-74
2022/05/10 05:32:35;;;;;;;;;;;;;;;;;;5084011;28;1167;-75
2022/05/10 05:35:00;;;;;;;;;;;;;;;;;;5066329;28;1120;-74
2022/05/10 05:37:35;;;;;;;;;;;;;;;;;;5084329;28;1172;-74
2022/05/10 05:40:02;;;;;;;;;;;;;;;;;;5062392;28;1467;-74
2022/05/10 05:42:28;;;;;;;;;;;;;;;;;;5062520;28;1196;-73
2022/05/10 05:44:54;;;;;;;;;;;;;;;;;;5048498;28;1286;-74
2022/05/10 05:47:19;;;;;;;;;;;;;;;;;;5064887;28;1957;-74
2022/05/10 05:49:44;;;;;;;;;;;;;;;;;;5047519;28;1176;-75
2022/05/10 05:52:09;;;;;;;;;;;;;;;;;;5082941;28;1206;-74
2022/05/10 05:54:35;;;;;;;;;;;;;;;;;;5064647;28;1077;-73
2022/05/10 05:57:01;;;;;;;;;;;;;;;;;;5079237;28;1273;-74
2022/05/10 05:59:26;;;;;;;;;;;;;;;;;;5065889;28;1185;-73
2022/05/10 06:01:57;;;;;;;;;;;;;;;;;;5049076;28;1302;-74
2022/05/10 06:04:23;;;;;;;;;;;;;;;;;;5066255;28;1183;-74
2022/05/10 06:06:48;;;;;;;;;;;;;;;;;;5049245;28;1282;-74
2022/05/10 06:09:13;;;;;;;;;;;;;;;;;;5062647;28;1894;-74
2022/05/10 06:11:39;;;;;;;;;;;;;;;;;;5064307;28;1244;-74
2022/05/10 06:14:04;;;;;;;;;;;;;;;;;;5051103;28;1254;-74
2022/05/10 06:16:30;;;;;;;;;;;;;;;;;;5093063;28;1207;-74
2022/05/10 06:18:55;;;;;;;;;;;;;;;;;;5058557;28;1377;-74
2022/05/10 06:21:23;;;;;;;;;;;;;;;;;;5051649;28;1287;-75
2022/05/10 06:23:49;;;;;;;;;;;;;;;;;;5050908;28;1246;-74
2022/05/10 06:26:14;;;;;;;;;;;;;;;;;;5066296;28;1080;-74
2022/05/10 06:28:39;;;;;;;;;;;;;;;;;;5089135;28;1893;-75
2022/05/10 06:31:05;;;;;;;;;;;;;;;;;;5086851;28;1110;-74
2022/05/10 06:33:30;;;;;;;;;;;;;;;;;;5088612;28;1163;-74
2022/05/10 06:35:59;;;;;;;;;;;;;;;;;;5052228;28;1267;-74
2022/05/10 06:38:27;;;;;;;;;;;;;;;;;;5068742;28;1178;-75
2022/05/10 06:41:01;;;;;;;;;;;;;;;;;;5067440;28;1199;-74
2022/05/10 06:43:28;;;;;;;;;;;;;;;;;;5087856;28;1154;-73
2022/05/10 06:45:59;;;;;;;;;;;;;;;;;;5085597;28;1155;-74
2022/05/10 06:48:24;;;;;;;;;;;;;;;;;;5052162;28;1922;-74
2022/05/10 06:50:59;;;;;;;;;;;;;;;;;;5087451;28;1242;-74
2022/05/10 06:53:25;;;;;;;;;;;;;;;;;;5051089;28;1322;-73
2022/05/10 06:56:03;;;;;;;;;;;;;;;;;;5050187;28;1428;-74
2022/05/10 06:58:28;;;;;;;;;;;;;;;;;;5069686;28;1184;-75
2022/05/10 07:00:54;;;;;;;;;;;;;;;;;;5068287;28;1230;-75
2022/05/10 07:03:25;;;;;;;;;;;;;;;;;;5068637;28;1064;-74
2022/05/10 07:05:54;;;;;;;;;;;;;;;;;;5068486;28;1386;-75
2022/05/10 07:08:19;;;;;;;;;;;;;;;;;;5084267;28;1882;-74
2022/05/10 07:10:45;;;;;;;;;;;;;;;;;;5065224;28;1128;-75
2022/05/10 07:13:14;;;;;;;;;;;;;;;;;;5049775;28;1305;-75
2022/05/10 07:15:39;;;;;;;;;;;;;;;;;;5067797;28;1480;-74
2022/05/10 07:18:04;;;;;;;;;;;;;;;;;;5084007;28;1226;-74
2022/05/10 07:20:30;;;;;;;;;;;;;;;;;;5066650;28;1222;-74
2022/05/10 07:22:55;;;;;;;;;;;;;;;;;;5050242;28;1345;-74
2022/05/10 07:25:25;;;;;;;;;;;;;;;;;;5065193;28;1326;-74
2022/05/10 07:27:50;;;;;;;;;;;;;;;;;;5063165;28;1971;-73
2022/05/10 07:30:16;;;;;;;;;;;;;;;;;;5083478;28;1274;-74
2022/05/10 07:32:42;;;;;;;;;;;;;;;;;;5102579;28;1263;-74
2022/05/10 07:35:07;;;;;;;;;;;;;;;;;;5104633;28;1186;-74
2022/05/10 07:37:34;;;;;;;;;;;;;;;;;;5105126;28;1258;-74
2022/05/10 07:40:08;;;;;;;;;;;;;;;;;;5104787;28;1199;-75
2022/05/10 07:42:34;;;;;;;;;;;;;;;;;;5101175;28;1360;-75
2022/05/10 07:45:06;;;;;;;;;;;;;;;;;;5103261;28;1397;-74
2022/05/10 07:47:31;;;;;;;;;;;;;;;;;;5103154;28;1930;-75
2022/05/10 07:49:56;;;;;;;;;;;;;;;;;;5104247;28;1176;-75
2022/05/10 07:52:25;;;;;;;;;;;;;;;;;;5102203;28;1079;-74
2022/05/10 07:54:53;;;;;;;;;;;;;;;;;;5103789;28;1331;-75
2022/05/10 07:57:18;;;;;;;;;;;;;;;;;;5097292;28;1178;-75
2022/05/10 07:59:43;;;;;;;;;;;;;;;;;;5102524;28;1183;-74
2022/05/10 08:02:09;;;;;;;;;;;;;;;;;;5102892;28;1092;-75
2022/05/10 08:04:34;;;;;;;;;;;;;;;;;;5101443;28;1222;-74
2022/05/10 08:06:59;;;;;;;;;;;;;;;;;;5065350;28;1313;-74
2022/05/10 08:09:25;;;;;;;;;;;;;;;;;;5064678;28;1943;-74
2022/05/10 08:11:53;;;;;;;;;;;;;;;;;;5083123;28;1370;-74
2022/05/10 08:14:19;;;;;;;;;;;;;;;;;;5066973;28;1337;-75
2022/05/10 08:16:45;;;;;;;;;;;;;;;;;;5082731;28;1121;-74
2022/05/10 08:19:11;;;;;;;;;;;;;;;;;;5083227;28;1194;-74
2022/05/10 08:21:36;;;;;;;;;;;;;;;;;;5085846;28;1346;-74
2022/05/10 08:24:02;;;;;;;;;;;;;;;;;;5103464;28;1266;-74
2022/05/10 08:26:27;;;;;;;;;;;;;;;;;;5090889;28;1143;-74
2022/05/10 08:28:52;;;;;;;;;;;;;;;;;;5083927;28;1983;-76
2022/05/10 08:31:20;;;;;;;;;;;;;;;;;;5080469;28;1183;-74
2022/05/10 08:33:46;;;;;;;;;;;;;;;;;;5092843;28;1132;-73
2022/05/10 08:36:11;;;;;;;;;;;;;;;;;;5101357;28;1142;-74
2022/05/10 08:38:37;;;;;;;;;;;;;;;;;;5067078;28;1214;-75
2022/05/10 08:41:02;;;;;;;;;;;;;;;;;;5099516;28;1380;-74
2022/05/10 08:43:30;;;;;;;;;;;;;;;;;;5102927;28;1398;-75
2022/05/10 08:45:56;;;;;;;;;;;;;;;;;;5102984;27;1155;-73
2022/05/10 08:48:24;;;;;;;;;;;;;;;;;;5084423;28;1942;-74
2022/05/10 08:50:53;;;;;;;;;;;;;;;;;;5103598;28;1618;-73
2022/05/10 08:53:19;;;;;;;;;;;;;;;;;;5091103;28;1186;-73
2022/05/10 08:55:55;;;;;;;;;;;;;;;;;;5101813;28;1207;-73
2022/05/10 08:58:40;;;;;;;;;;;;;;;;;;5099587;28;1220;-73
2022/05/10 09:01:26;;;;;;;;;;;;;;;;;;5102408;28;1124;-74
2022/05/10 09:03:57;;;;;;;;;;;;;;;;;;5104447;28;1217;-73
2022/05/10 09:06:34;;;;;;;;;;;;;;;;;;5100523;28;1317;-73
2022/05/10 09:09:16;;;;;;;;;;;;;;;;;;5081657;28;1937;-73
2022/05/10 09:11:54;;;;;;;;;;;;;;;;;;5076455;28;1364;-75
2022/05/10 09:14:25;;;;;;;;;;;;;;;;;;5083491;28;1132;-74
2022/05/10 09:16:51;;;;;;;;;;;;;;;;;;5083198;28;1111;-72
2022/05/10 09:19:16;;;;;;;;;;;;;;;;;;5082913;28;1126;-82
2022/05/10 09:21:49;;;;;;;;;;;;;;;;;;5104935;28;1301;-74
2022/05/10 09:24:17;;;;;;;;;;;;;;;;;;5109793;28;1167;-74
2022/05/10 09:26:43;;;;;;;;;;;;;;;;;;5108452;28;1183;-79
2022/05/10 09:29:27;;;;;;;;;;;;;;;;;;5100325;28;1918;-74
2022/05/10 09:34:48;;;;;;;;;;;;;;;;;;5084126;28;1067;-74
2022/05/10 09:37:16;;;;;;;;;;;;;;;;;;5098335;28;1234;-79
2022/05/10 09:39:47;;;;;;;;;;;;;;;;;;5100732;28;1309;-74
2022/05/10 09:42:31;;;;;;;;;;;;;;;;;;5095649;28;1170;-73
2022/05/10 09:45:17;;;;;;;;;;;;;;;;;;5094977;28;1135;-72
2022/05/10 09:47:56;;;;;;;;;;;;;;;;;;5080604;28;1972;-74
2022/05/10 09:50:26;;;;;;;;;;;;;;;;;;5082985;28;1270;-74
2022/05/10 09:53:09;;;;;;;;;;;;;;;;;;5086133;28;1202;-73
2022/05/10 09:56:00;;;;;;;;;;;;;;;;;;5082944;28;1324;-73
2022/05/10 09:58:28;;;;;;;;;;;;;;;;;;5082817;28;1272;-74
2022/05/10 10:00:54;;;;;;;;;;;;;;;;;;5085075;28;1380;-73
2022/05/10 10:03:37;;;;;;;;;;;;;;;;;;5066852;28;1221;-74
2022/05/10 10:06:12;;;;;;;;;;;;;;;;;;5085203;28;1203;-74
2022/05/10 10:08:38;;;;;;;;;;;;;;;;;;5082184;28;1949;-73
2022/05/10 10:11:24;;;;;;;;;;;;;;;;;;5081946;28;1269;-73
2022/05/10 10:13:54;;;;;;;;;;;;;;;;;;5093054;28;1171;-72
2022/05/10 10:16:24;;;;;;;;;;;;;;;;;;5103934;28;1088;-73
2022/05/10 10:18:52;;;;;;;;;;;;;;;;;;5108420;28;1288;-73
2022/05/10 10:21:25;;;;;;;;;;;;;;;;;;5107086;28;1195;-72
2022/05/10 10:23:54;;;;;;;;;;;;;;;;;;5089637;28;1151;-73
2022/05/10 10:26:31;;;;;;;;;;;;;;;;;;5081963;28;1156;-73
2022/05/10 10:29:10;;;;;;;;;;;;;;;;;;5086868;28;1894;-74
2022/05/10 10:31:37;;;;;;;;;;;;;;;;;;5086910;28;1112;-73
2022/05/10 10:34:05;;;;;;;;;;;;;;;;;;5069537;28;1272;-73
2022/05/10 10:36:41;;;;;;;;;;;;;;;;;;5084916;28;1112;-73
2022/05/10 10:39:06;;;;;;;;;;;;;;;;;;5068379;28;1184;-73
2022/05/10 10:41:39;;;;;;;;;;;;;;;;;;5062201;28;1179;-73
2022/05/10 10:44:23;;;;;;;;;;;;;;;;;;5069330;28;1179;-73
2022/05/10 10:47:04;;;;;;;;;;;;;;;;;;5067875;28;1057;-74
2022/05/10 10:49:33;;;;;;;;;;;;;;;;;;5066349;28;1902;-73
2022/05/10 10:51:59;;;;;;;;;;;;;;;;;;5069317;28;1266;-70
2022/05/10 10:54:29;;;;;;;;;;;;;;;;;;5065664;28;1207;-75
2022/05/10 10:57:13;;;;;;;;;;;;;;;;;;5066310;28;1211;-72
2022/05/10 10:59:48;;;;;;;;;;;;;;;;;;5083707;28;1309;-73
2022/05/10 11:02:32;;;;;;;;;;;;;;;;;;5068962;28;1246;-73
2022/05/10 11:04:57;;;;;;;;;;;;;;;;;;5086182;28;1202;-74
2022/05/10 11:07:43;;;;;;;;;;;;;;;;;;5085205;28;1858;-73
2022/05/10 11:10:11;;;;;;;;;;;;;;;;;;5066739;28;1428;-74
2022/05/10 11:13:01;;;;;;;;;;;;;;;;;;5063250;28;1266;-73
2022/05/10 11:15:33;;;;;;;;;;;;;;;;;;5067557;28;1108;-74
2022/05/10 11:18:18;;;;;;;;;;;;;;;;;;5067734;28;1164;-73
2022/05/10 11:21:02;;;;;;;;;;;;;;;;;;5065818;28;1194;-72
2022/05/10 11:23:40;;;;;;;;;;;;;;;;;;5083970;28;1107;-73
2022/05/10 11:26:12;;;;;;;;;;;;;;;;;;5063546;28;1254;-73
2022/05/10 11:28:55;;;;;;;;;;;;;;;;;;5083779;28;1937;-74
2022/05/10 11:31:31;;;;;;;;;;;;;;;;;;5087481;28;1216;-74
2022/05/10 11:34:15;;;;;;;;;;;;;;;;;;5066693;28;1230;-74
2022/05/10 11:36:41;;;;;;;;;;;;;;;;;;5063311;28;1354;-72
2022/05/10 11:39:15;;;;;;;;;;;;;;;;;;5084391;28;1092;-80
2022/05/10 11:41:50;;;;;;;;;;;;;;;;;;5067611;28;1341;-78
2022/05/10 11:44:28;;;;;;;;;;;;;;;;;;5069241;28;1321;-81
2022/05/10 11:47:13;;;;;;;;;;;;;;;;;;5069641;28;1330;-80
2022/05/10 11:49:47;;;;;;;;;;;;;;;;;;5085119;28;1971;-79
2022/05/10 11:52:12;;;;;;;;;;;;;;;;;;5091269;28;1135;-80
2022/05/10 11:54:38;;;;;;;;;;;;;;;;;;5082927;28;1136;-81
2022/05/10 11:57:04;;;;;;;;;;;;;;;;;;5063924;28;1313;-80
2022/05/10 11:59:34;;;;;;;;;;;;;;;;;;5067397;28;1242;-80
2022/05/10 12:02:00;;;;;;;;;;;;;;;;;;5069383;28;1618;-81
2022/05/10 12:04:42;;;;;;;;;;;;;;;;;;5070393;28;1279;-82
2022/05/10 12:07:24;;;;;;;;;;;;;;;;;;5087958;28;1024;-80
2022/05/10 12:09:55;;;;;;;;;;;;;;;;;;5067810;28;1400;-80
2022/05/10 12:12:33;;;;;;;;;;;;;;;;;;5068303;28;1319;-81
2022/05/10 12:23:45;;;;;;;;;;;;;;;;;;5086455;28;1016;-77
2022/05/10 12:26:30;;;;;;;;;;;;;;;;;;5083025;28;818;-77
2022/05/10 12:28:56;;;;;;;;;;;;;;;;;;5067358;28;1943;-77
2022/05/10 12:31:22;;;;;;;;;;;;;;;;;;5075148;28;1353;-77
2022/05/10 12:33:58;;;;;;;;;;;;;;;;;;5084320;28;802;-77
2022/05/10 12:36:29;;;;;;;;;;;;;;;;;;5085458;28;1311;-77
2022/05/10 12:38:54;;;;;;;;;;;;;;;;;;5082227;28;1323;-77
2022/05/10 12:41:35;;;;;;;;;;;;;;;;;;5067850;28;1220;-83
2022/05/10 12:44:08;;;;;;;;;;;;;;;;;;5084302;28;1200;-84
2022/05/10 12:46:45;;;;;;;;;;;;;;;;;;5086706;28;1276;-79
2022/05/10 12:49:19;;;;;;;;;;;;;;;;;;5105544;28;1963;-82
2022/05/10 12:51:45;;;;;;;;;;;;;;;;;;5103157;28;1317;-83
2022/05/10 12:54:13;;;;;;;;;;;;;;;;;;5102679;28;1226;-81
2022/05/10 12:56:41;;;;;;;;;;;;;;;;;;5098701;28;1217;-86
2022/05/10 12:59:17;;;;;;;;;;;;;;;;;;5102064;28;1166;-77
2022/05/10 13:01:43;;;;;;;;;;;;;;;;;;5100991;28;1320;-77
2022/05/10 13:04:16;;;;;;;;;;;;;;;;;;5100002;28;1322;-83
2022/05/10 13:06:56;;;;;;;;;;;;;;;;;;5080594;28;1223;-82
2022/05/10 13:09:41;;;;;;;;;;;;;;;;;;5081262;28;1882;-80
2022/05/10 13:12:23;;;;;;;;;;;;;;;;;;5097920;28;1151;-80
2022/05/10 13:14:50;;;;;;;;;;;;;;;;;;5085068;28;1268;-82
2022/05/10 13:17:20;;;;;;;;;;;;;;;;;;5108064;28;1223;-80
2022/05/10 13:19:45;;;;;;;;;;;;;;;;;;5086801;28;1222;-84
2022/05/10 13:22:14;;;;;;;;;;;;;;;;;;5103214;28;1176;-73
2022/05/10 13:24:44;;;;;;;;;;;;;;;;;;5090748;28;1277;-73
2022/05/10 13:27:22;;;;;;;;;;;;;;;;;;5106457;28;1147;-76
2022/05/10 13:29:48;;;;;;;;;;;;;;;;;;5105433;28;1282;-75
2022/05/10 13:32:29;;;;;;;;;;;;;;;;;;5107818;27;1261;-74
2022/05/10 13:34:58;;;;;;;;;;;;;;;;;;5106504;28;1115;-76
2022/05/10 13:37:29;;;;;;;;;;;;;;;;;;5108793;28;1127;-74
2022/05/10 13:39:56;;;;;;;;;;;;;;;;;;5104971;28;1135;-74
2022/05/10 13:42:21;;;;;;;;;;;;;;;;;;5106246;28;1226;-75
2022/05/10 13:44:47;;;;;;;;;;;;;;;;;;5106280;28;997;-75
2022/05/10 13:47:21;;;;;;;;;;;;;;;;;;5089364;28;1273;-75
2022/05/10 13:49:47;;;;;;;;;;;;;;;;;;5106777;28;1183;-75
2022/05/10 13:52:31;;;;;;;;;;;;;;;;;;5089795;28;1489;-75
2022/05/10 13:55:01;;;;;;;;;;;;;;;;;;5105679;28;1301;-75
2022/05/10 13:57:28;;;;;;;;;;;;;;;;;;5104727;28;1241;-73
2022/05/10 13:59:58;;;;;;;;;;;;;;;;;;5105142;28;1190;-73
2022/05/10 14:02:25;;;;;;;;;;;;;;;;;;5105793;28;1257;-75
2022/05/10 14:04:52;;;;;;;;;;;;;;;;;;5067315;28;1345;-76
2022/05/10 14:07:24;;;;;;;;;;;;;;;;;;5085647;28;1278;-74
2022/05/10 14:09:50;;;;;;;;;;;;;;;;;;5082799;28;1327;-75
2022/05/10 14:12:23;;;;;;;;;;;;;;;;;;5068379;28;1316;-75
2022/05/10 14:14:50;;;;;;;;;;;;;;;;;;5084290;28;1198;-75
2022/05/10 14:17:16;;;;;;;;;;;;;;;;;;5085607;28;1268;-75
2022/05/10 14:19:43;;;;;;;;;;;;;;;;;;5096939;28;1218;-75
2022/05/10 14:22:19;;;;;;;;;;;;;;;;;;5087655;28;1159;-75
2022/05/10 14:24:45;;;;;;;;;;;;;;;;;;5082272;28;1219;-74
2022/05/10 14:27:26;;;;;;;;;;;;;;;;;;5087612;28;1299;-75
2022/05/10 14:29:57;;;;;;;;;;;;;;;;;;5100967;28;1072;-75
2022/05/10 14:32:22;;;;;;;;;;;;;;;;;;5088585;28;1638;-75
2022/05/10 14:34:49;;;;;;;;;;;;;;;;;;5100899;28;1273;-75
2022/05/10 14:37:18;;;;;;;;;;;;;;;;;;5101395;28;1195;-74
2022/05/10 14:39:47;;;;;;;;;;;;;;;;;;5100873;28;1257;-74
2022/05/10 14:42:27;;;;;;;;;;;;;;;;;;5092547;28;1159;-74
2022/05/10 14:44:54;;;;;;;;;;;;;;;;;;5098349;28;1568;-75
2022/05/10 14:47:23;;;;;;;;;;;;;;;;;;5104257;28;1401;-75
2022/05/10 14:49:50;;;;;;;;;;;;;;;;;;5085230;28;1227;-75
2022/05/10 14:52:33;;;;;;;;;;;;;;;;;;5085112;28;1314;-74
2022/05/10 14:54:59;;;;;;;;;;;;;;;;;;5081457;28;1091;-75
2022/05/10 14:57:36;;;;;;;;;;;;;;;;;;5082353;28;1120;-75
2022/05/10 15:00:21;;;;;;;;;;;;;;;;;;5084769;28;1206;-75
2022/05/10 15:03:02;;;;;;;;;;;;;;;;;;5082711;28;1465;-75
2022/05/10 15:05:27;;;;;;;;;;;;;;;;;;5084147;28;1348;-74
2022/05/10 15:07:52;;;;;;;;;;;;;;;;;;5081359;28;1956;-74
2022/05/10 15:10:18;;;;;;;;;;;;;;;;;;5091855;28;1073;-73
2022/05/10 15:13:04;;;;;;;;;;;;;;;;;;5100978;28;1210;-74
2022/05/10 15:15:36;;;;;;;;;;;;;;;;;;5105540;28;1155;-75
2022/05/10 15:20:47;;;;;;;;;;;;;;;;;;5085525;28;1016;-75
2022/05/10 15:23:13;;;;;;;;;;;;;;;;;;5096606;28;1268;-74
2022/05/10 15:25:41;;;;;;;;;;;;;;;;;;5083816;28;1202;-75
2022/05/10 15:28:11;;;;;;;;;;;;;;;;;;5081643;28;1949;-75
2022/05/10 15:30:36;;;;;;;;;;;;;;;;;;5084613;28;1316;-75
2022/05/10 15:33:02;;;;;;;;;;;;;;;;;;5063273;28;1246;-75
2022/05/10 15:35:27;;;;;;;;;;;;;;;;;;5086008;28;1077;-74
2022/05/10 15:37:53;;;;;;;;;;;;;;;;;;5064932;28;1233;-73
2022/05/10 15:40:19;;;;;;;;;;;;;;;;;;5065491;28;1215;-75
2022/05/10 15:42:55;;;;;;;;;;;;;;;;;;5065920;28;1242;-75
2022/05/10 15:45:21;;;;;;;;;;;;;;;;;;5069067;28;1225;-76
2022/05/10 15:47:49;;;;;;;;;;;;;;;;;;5065391;28;1910;-76
2022/05/10 15:50:23;;;;;;;;;;;;;;;;;;5067351;28;1251;-75
2022/05/10 15:52:51;;;;;;;;;;;;;;;;;;5064433;28;1273;-75
2022/05/10 15:55:17;;;;;;;;;;;;;;;;;;5061725;28;1203;-76
2022/05/10 15:57:43;;;;;;;;;;;;;;;;;;5080105;28;826;-74
2022/05/10 16:00:09;;;;;;;;;;;;;;;;;;5044479;28;1214;-75
2022/05/10 16:02:35;;;;;;;;;;;;;;;;;;5047286;28;1290;-76
2022/05/10 16:05:01;;;;;;;;;;;;;;;;;;5063148;28;1262;-75
2022/05/10 16:07:26;;;;;;;;;;;;;;;;;;5064646;28;1890;-75
2022/05/10 16:09:54;;;;;;;;;;;;;;;;;;5063024;28;1149;-75
2022/05/10 16:12:22;;;;;;;;;;;;;;;;;;5062560;28;1282;-75
2022/05/10 16:14:51;;;;;;;;;;;;;;;;;;5080936;28;1234;-74
2022/05/10 16:17:17;;;;;;;;;;;;;;;;;;5046191;28;1200;-75
2022/05/10 16:22:30;;;;;;;;;;;;;;;;;;5080286;28;1189;-74
2022/05/10 16:24:56;;;;;;;;;;;;;;;;;;5056406;28;1195;-75
2022/05/10 16:30:05;;;;;;;;;;;;;;;;;;5074471;28;905;-75
2022/05/10 16:32:33;;;;;;;;;;;;;;;;;;5065472;28;1199;-74
2022/05/10 16:34:59;;;;;;;;;;;;;;;;;;5102524;28;1218;-76
2022/05/10 16:37:24;;;;;;;;;;;;;;;;;;5103660;28;1207;-75
2022/05/10 16:39:50;;;;;;;;;;;;;;;;;;5102797;28;1207;-73
2022/05/10 16:42:18;;;;;;;;;;;;;;;;;;5093106;28;1160;-74
2022/05/10 16:44:44;;;;;;;;;;;;;;;;;;5084865;28;1203;-75
2022/05/10 16:47:11;;;;;;;;;;;;;;;;;;5087392;28;1412;-76
2022/05/10 16:49:37;;;;;;;;;;;;;;;;;;5102162;28;1910;-75
2022/05/10 16:52:06;;;;;;;;;;;;;;;;;;5098827;28;1171;-73
2022/05/10 16:54:38;;;;;;;;;;;;;;;;;;5083353;28;1258;-73
2022/05/10 16:57:05;;;;;;;;;;;;;;;;;;5080938;28;1214;-73
2022/05/10 16:59:30;;;;;;;;;;;;;;;;;;5091013;28;1459;-74
2022/05/10 17:01:56;;;;;;;;;;;;;;;;;;5092785;28;1156;-75
2022/05/10 17:04:22;;;;;;;;;;;;;;;;;;5087091;28;874;-76
2022/05/10 17:06:47;;;;;;;;;;;;;;;;;;5086352;28;850;-75
2022/05/10 17:09:13;;;;;;;;;;;;;;;;;;5082353;28;1949;-75
2022/05/10 17:11:38;;;;;;;;;;;;;;;;;;5083639;28;905;-75
2022/05/10 17:14:03;;;;;;;;;;;;;;;;;;5083453;28;1351;-74
2022/05/10 17:16:29;;;;;;;;;;;;;;;;;;5085346;28;1048;-75
2022/05/10 17:18:57;;;;;;;;;;;;;;;;;;5085619;28;724;-76
2022/05/10 17:21:25;;;;;;;;;;;;;;;;;;5086695;28;901;-74
2022/05/10 17:23:51;;;;;;;;;;;;;;;;;;5085586;28;894;-75
2022/05/10 17:26:16;;;;;;;;;;;;;;;;;;5080593;28;1356;-75
2022/05/10 17:28:59;;;;;;;;;;;;;;;;;;5085959;28;1957;-76
2022/05/10 17:31:29;;;;;;;;;;;;;;;;;;5085704;28;1155;-75
2022/05/10 17:33:58;;;;;;;;;;;;;;;;;;5085509;28;1159;-74
2022/05/10 17:36:25;;;;;;;;;;;;;;;;;;5067653;28;1191;-75
2022/05/10 17:38:50;;;;;;;;;;;;;;;;;;5065350;28;1149;-75